sensor_id;sensor_type;location;lat;lon;timestamp;P1;durP1;ratioP1;P2;durP2;ratioP2
11572;SDS011;5842;52.426;4.886;2023-05-07T00:00:52;38.83;;;28.17;;
11572;SDS011;5842;52.426;4.886;2023-05-07T00:03:26;40.83;;;29.20;;
11572;SDS011;5842;52.426;4.886;2023-05-07T00:06:05;37.07;;;27.67;;
11572;SDS011;5842;52.426;4.886;2023-05-07T00:08:51;38.40;;;28.17;;
11572;SDS011;5842;52.426;4.886;2023-05-07T00:11:23;40.23;;;29.13;;
11572;SDS011;5842;52.426;4.886;2023-05-07T00:14:00;38.93;;;29.37;;
11572;SDS011;5842;52.426;4.886;2023-05-07T00:16:34;38.83;;;29.93;;
11572;SDS011;5842;52.426;4.886;2023-05-07T00:19:11;41.43;;;30.87;;
11572;SDS011;5842;52.426;4.886;2023-05-07T00:21:46;48.83;;;33.17;;
11572;SDS011;5842;52.426;4.886;2023-05-07T00:24:21;49.97;;;36.53;;
11572;SDS011;5842;52.426;4.886;2023-05-07T00:26:59;54.97;;;37.67;;
11572;SDS011;5842;52.426;4.886;2023-05-07T00:29:48;56.80;;;38.23;;
11572;SDS011;5842;52.426;4.886;2023-05-07T00:32:22;57.23;;;38.10;;
11572;SDS011;5842;52.426;4.886;2023-05-07T00:35:08;66.60;;;41.63;;
11572;SDS011;5842;52.426;4.886;2023-05-07T00:37:42;64.63;;;41.37;;
11572;SDS011;5842;52.426;4.886;2023-05-07T00:40:16;68.00;;;43.60;;
11572;SDS011;5842;52.426;4.886;2023-05-07T00:42:56;67.03;;;43.93;;
11572;SDS011;5842;52.426;4.886;2023-05-07T00:45:32;73.10;;;45.27;;
11572;SDS011;5842;52.426;4.886;2023-05-07T00:48:05;73.27;;;47.00;;
11572;SDS011;5842;52.426;4.886;2023-05-07T00:50:38;75.63;;;46.27;;
11572;SDS011;5842;52.426;4.886;2023-05-07T00:53:12;72.00;;;45.07;;
11572;SDS011;5842;52.426;4.886;2023-05-07T00:55:46;80.83;;;48.37;;
11572;SDS011;5842;52.426;4.886;2023-05-07T00:58:20;74.47;;;45.77;;
11572;SDS011;5842;52.426;4.886;2023-05-07T01:00:58;73.07;;;45.77;;
11572;SDS011;5842;52.426;4.886;2023-05-07T01:03:32;69.87;;;45.17;;
11572;SDS011;5842;52.426;4.886;2023-05-07T01:06:05;65.27;;;44.23;;
11572;SDS011;5842;52.426;4.886;2023-05-07T01:08:40;72.57;;;44.47;;
11572;SDS011;5842;52.426;4.886;2023-05-07T01:11:13;73.07;;;46.90;;
11572;SDS011;5842;52.426;4.886;2023-05-07T01:13:47;79.07;;;47.67;;
11572;SDS011;5842;52.426;4.886;2023-05-07T01:16:25;72.97;;;44.00;;
11572;SDS011;5842;52.426;4.886;2023-05-07T01:19:04;70.87;;;44.53;;
11572;SDS011;5842;52.426;4.886;2023-05-07T01:21:38;69.20;;;43.93;;
11572;SDS011;5842;52.426;4.886;2023-05-07T01:24:15;77.53;;;46.50;;
11572;SDS011;5842;52.426;4.886;2023-05-07T01:26:48;79.00;;;44.60;;
11572;SDS011;5842;52.426;4.886;2023-05-07T01:29:22;74.43;;;44.27;;
11572;SDS011;5842;52.426;4.886;2023-05-07T01:31:56;64.27;;;42.07;;
11572;SDS011;5842;52.426;4.886;2023-05-07T01:34:30;68.83;;;42.93;;
11572;SDS011;5842;52.426;4.886;2023-05-07T01:37:04;63.07;;;40.90;;
11572;SDS011;5842;52.426;4.886;2023-05-07T01:39:41;60.37;;;39.73;;
11572;SDS011;5842;52.426;4.886;2023-05-07T01:42:21;59.60;;;38.50;;
11572;SDS011;5842;52.426;4.886;2023-05-07T01:44:55;54.37;;;37.43;;
11572;SDS011;5842;52.426;4.886;2023-05-07T01:47:30;51.10;;;35.43;;
11572;SDS011;5842;52.426;4.886;2023-05-07T01:50:05;51.90;;;34.80;;
11572;SDS011;5842;52.426;4.886;2023-05-07T01:52:38;47.23;;;34.27;;
11572;SDS011;5842;52.426;4.886;2023-05-07T01:55:18;49.67;;;34.90;;
11572;SDS011;5842;52.426;4.886;2023-05-07T01:57:51;48.63;;;33.07;;
11572;SDS011;5842;52.426;4.886;2023-05-07T02:00:29;43.90;;;31.23;;
11572;SDS011;5842;52.426;4.886;2023-05-07T02:03:02;45.87;;;32.17;;
11572;SDS011;5842;52.426;4.886;2023-05-07T02:05:36;43.93;;;31.07;;
11572;SDS011;5842;52.426;4.886;2023-05-07T02:08:10;41.30;;;29.10;;
11572;SDS011;5842;52.426;4.886;2023-05-07T02:10:46;39.97;;;28.63;;
11572;SDS011;5842;52.426;4.886;2023-05-07T02:13:21;38.57;;;27.73;;
11572;SDS011;5842;52.426;4.886;2023-05-07T02:15:56;36.20;;;27.93;;
11572;SDS011;5842;52.426;4.886;2023-05-07T02:18:29;35.20;;;27.23;;
11572;SDS011;5842;52.426;4.886;2023-05-07T02:21:03;35.07;;;26.93;;
11572;SDS011;5842;52.426;4.886;2023-05-07T02:23:37;36.90;;;26.30;;
11572;SDS011;5842;52.426;4.886;2023-05-07T02:26:17;37.83;;;27.17;;
11572;SDS011;5842;52.426;4.886;2023-05-07T02:28:51;37.70;;;27.13;;
11572;SDS011;5842;52.426;4.886;2023-05-07T02:31:25;40.00;;;28.07;;
11572;SDS011;5842;52.426;4.886;2023-05-07T02:34:01;40.33;;;28.47;;
11572;SDS011;5842;52.426;4.886;2023-05-07T02:36:35;38.37;;;27.77;;
11572;SDS011;5842;52.426;4.886;2023-05-07T02:39:09;36.57;;;25.23;;
11572;SDS011;5842;52.426;4.886;2023-05-07T02:41:45;33.33;;;23.50;;
11572;SDS011;5842;52.426;4.886;2023-05-07T02:44:19;31.23;;;22.50;;
11572;SDS011;5842;52.426;4.886;2023-05-07T02:46:59;33.13;;;22.90;;
11572;SDS011;5842;52.426;4.886;2023-05-07T02:49:32;26.53;;;21.33;;
11572;SDS011;5842;52.426;4.886;2023-05-07T02:52:06;27.53;;;20.90;;
11572;SDS011;5842;52.426;4.886;2023-05-07T02:54:40;25.57;;;20.47;;
11572;SDS011;5842;52.426;4.886;2023-05-07T02:57:16;27.57;;;20.40;;
11572;SDS011;5842;52.426;4.886;2023-05-07T02:59:50;23.90;;;19.20;;
11572;SDS011;5842;52.426;4.886;2023-05-07T03:02:27;23.93;;;19.60;;
11572;SDS011;5842;52.426;4.886;2023-05-07T03:05:00;25.73;;;19.13;;
11572;SDS011;5842;52.426;4.886;2023-05-07T03:07:34;26.17;;;18.80;;
11572;SDS011;5842;52.426;4.886;2023-05-07T03:10:12;22.50;;;18.43;;
11572;SDS011;5842;52.426;4.886;2023-05-07T03:12:50;22.47;;;17.57;;
11572;SDS011;5842;52.426;4.886;2023-05-07T03:15:23;23.10;;;17.97;;
11572;SDS011;5842;52.426;4.886;2023-05-07T03:17:57;22.13;;;17.13;;
11572;SDS011;5842;52.426;4.886;2023-05-07T03:20:31;25.23;;;19.10;;
11572;SDS011;5842;52.426;4.886;2023-05-07T03:23:04;23.87;;;17.80;;
11572;SDS011;5842;52.426;4.886;2023-05-07T03:25:40;22.57;;;17.33;;
11572;SDS011;5842;52.426;4.886;2023-05-07T03:28:17;21.23;;;17.30;;
11572;SDS011;5842;52.426;4.886;2023-05-07T03:30:49;21.23;;;16.67;;
11572;SDS011;5842;52.426;4.886;2023-05-07T03:33:26;20.77;;;16.60;;
11572;SDS011;5842;52.426;4.886;2023-05-07T03:35:59;21.30;;;16.50;;
11572;SDS011;5842;52.426;4.886;2023-05-07T03:38:33;19.33;;;15.70;;
11572;SDS011;5842;52.426;4.886;2023-05-07T03:41:07;20.97;;;15.90;;
11572;SDS011;5842;52.426;4.886;2023-05-07T03:43:43;19.97;;;15.77;;
11572;SDS011;5842;52.426;4.886;2023-05-07T03:46:17;20.87;;;15.63;;
11572;SDS011;5842;52.426;4.886;2023-05-07T03:48:53;20.27;;;16.40;;
11572;SDS011;5842;52.426;4.886;2023-05-07T03:51:26;19.67;;;14.20;;
11572;SDS011;5842;52.426;4.886;2023-05-07T03:54:00;18.53;;;13.77;;
11572;SDS011;5842;52.426;4.886;2023-05-07T03:56:34;18.40;;;12.93;;
11572;SDS011;5842;52.426;4.886;2023-05-07T03:59:15;18.30;;;14.30;;
11572;SDS011;5842;52.426;4.886;2023-05-07T04:01:48;16.03;;;13.57;;
11572;SDS011;5842;52.426;4.886;2023-05-07T04:04:22;15.87;;;12.37;;
11572;SDS011;5842;52.426;4.886;2023-05-07T04:06:56;18.73;;;13.63;;
11572;SDS011;5842;52.426;4.886;2023-05-07T04:09:29;17.93;;;13.63;;
11572;SDS011;5842;52.426;4.886;2023-05-07T04:12:03;15.33;;;13.47;;
11572;SDS011;5842;52.426;4.886;2023-05-07T04:14:42;15.17;;;12.97;;
11572;SDS011;5842;52.426;4.886;2023-05-07T04:17:16;14.33;;;12.00;;
11572;SDS011;5842;52.426;4.886;2023-05-07T04:19:50;16.20;;;12.90;;
11572;SDS011;5842;52.426;4.886;2023-05-07T04:22:23;14.77;;;12.13;;
11572;SDS011;5842;52.426;4.886;2023-05-07T04:25:01;16.30;;;12.23;;
11572;SDS011;5842;52.426;4.886;2023-05-07T04:27:45;16.03;;;11.73;;
11572;SDS011;5842;52.426;4.886;2023-05-07T04:30:24;15.17;;;12.10;;
11572;SDS011;5842;52.426;4.886;2023-05-07T04:32:58;15.07;;;12.53;;
11572;SDS011;5842;52.426;4.886;2023-05-07T04:35:32;15.70;;;12.13;;
11572;SDS011;5842;52.426;4.886;2023-05-07T04:38:05;15.23;;;12.73;;
11572;SDS011;5842;52.426;4.886;2023-05-07T04:40:39;17.97;;;13.13;;
11572;SDS011;5842;52.426;4.886;2023-05-07T04:43:16;15.37;;;12.80;;
11572;SDS011;5842;52.426;4.886;2023-05-07T04:45:54;18.50;;;13.77;;
11572;SDS011;5842;52.426;4.886;2023-05-07T04:48:28;16.77;;;14.10;;
11572;SDS011;5842;52.426;4.886;2023-05-07T04:51:00;18.33;;;14.80;;
11572;SDS011;5842;52.426;4.886;2023-05-07T04:53:42;17.67;;;15.70;;
11572;SDS011;5842;52.426;4.886;2023-05-07T04:56:16;19.37;;;16.10;;
11572;SDS011;5842;52.426;4.886;2023-05-07T04:58:49;18.63;;;15.30;;
11572;SDS011;5842;52.426;4.886;2023-05-07T05:01:26;18.90;;;16.83;;
11572;SDS011;5842;52.426;4.886;2023-05-07T05:04:01;21.47;;;16.83;;
11572;SDS011;5842;52.426;4.886;2023-05-07T05:06:34;19.73;;;16.67;;
11572;SDS011;5842;52.426;4.886;2023-05-07T05:09:08;21.03;;;17.53;;
11572;SDS011;5842;52.426;4.886;2023-05-07T05:11:42;25.47;;;19.50;;
11572;SDS011;5842;52.426;4.886;2023-05-07T05:14:15;25.70;;;20.00;;
11572;SDS011;5842;52.426;4.886;2023-05-07T05:16:55;22.40;;;19.67;;
11572;SDS011;5842;52.426;4.886;2023-05-07T05:19:47;22.83;;;20.07;;
11572;SDS011;5842;52.426;4.886;2023-05-07T05:22:20;24.33;;;20.80;;
11572;SDS011;5842;52.426;4.886;2023-05-07T05:24:58;24.00;;;21.27;;
11572;SDS011;5842;52.426;4.886;2023-05-07T05:27:32;23.73;;;20.37;;
11572;SDS011;5842;52.426;4.886;2023-05-07T05:30:05;22.70;;;20.10;;
11572;SDS011;5842;52.426;4.886;2023-05-07T05:32:45;22.20;;;19.03;;
11572;SDS011;5842;52.426;4.886;2023-05-07T05:35:19;22.63;;;19.47;;
11572;SDS011;5842;52.426;4.886;2023-05-07T05:37:52;23.87;;;18.80;;
11572;SDS011;5842;52.426;4.886;2023-05-07T05:40:26;21.80;;;17.73;;
11572;SDS011;5842;52.426;4.886;2023-05-07T05:43:00;20.07;;;17.80;;
11572;SDS011;5842;52.426;4.886;2023-05-07T05:45:32;20.77;;;17.03;;
11572;SDS011;5842;52.426;4.886;2023-05-07T05:48:09;21.57;;;17.27;;
11572;SDS011;5842;52.426;4.886;2023-05-07T05:50:43;19.37;;;17.17;;
11572;SDS011;5842;52.426;4.886;2023-05-07T05:53:16;19.20;;;17.10;;
11572;SDS011;5842;52.426;4.886;2023-05-07T05:55:50;19.37;;;17.37;;
11572;SDS011;5842;52.426;4.886;2023-05-07T05:58:24;22.40;;;17.93;;
11572;SDS011;5842;52.426;4.886;2023-05-07T06:00:57;19.73;;;17.63;;
11572;SDS011;5842;52.426;4.886;2023-05-07T06:03:35;19.93;;;17.53;;
11572;SDS011;5842;52.426;4.886;2023-05-07T06:06:09;19.90;;;17.23;;
11572;SDS011;5842;52.426;4.886;2023-05-07T06:08:42;18.50;;;16.37;;
11572;SDS011;5842;52.426;4.886;2023-05-07T06:11:16;18.17;;;16.27;;
11572;SDS011;5842;52.426;4.886;2023-05-07T06:13:49;20.90;;;16.27;;
11572;SDS011;5842;52.426;4.886;2023-05-07T06:16:26;18.47;;;14.90;;
11572;SDS011;5842;52.426;4.886;2023-05-07T06:19:06;18.87;;;15.47;;
11572;SDS011;5842;52.426;4.886;2023-05-07T06:21:39;18.57;;;16.50;;
11572;SDS011;5842;52.426;4.886;2023-05-07T06:24:13;17.83;;;16.03;;
11572;SDS011;5842;52.426;4.886;2023-05-07T06:26:47;20.43;;;17.00;;
11572;SDS011;5842;52.426;4.886;2023-05-07T06:29:23;18.97;;;16.13;;
11572;SDS011;5842;52.426;4.886;2023-05-07T06:32:00;19.73;;;16.63;;
11572;SDS011;5842;52.426;4.886;2023-05-07T06:34:41;16.80;;;14.80;;
11572;SDS011;5842;52.426;4.886;2023-05-07T06:37:14;18.67;;;15.10;;
11572;SDS011;5842;52.426;4.886;2023-05-07T06:39:48;15.70;;;14.10;;
11572;SDS011;5842;52.426;4.886;2023-05-07T06:42:26;16.00;;;14.13;;
11572;SDS011;5842;52.426;4.886;2023-05-07T06:45:03;15.97;;;13.27;;
11572;SDS011;5842;52.426;4.886;2023-05-07T06:47:37;15.37;;;13.13;;
11572;SDS011;5842;52.426;4.886;2023-05-07T06:50:19;16.50;;;13.73;;
11572;SDS011;5842;52.426;4.886;2023-05-07T06:52:52;14.87;;;13.27;;
11572;SDS011;5842;52.426;4.886;2023-05-07T06:55:29;15.23;;;13.73;;
11572;SDS011;5842;52.426;4.886;2023-05-07T06:58:14;14.37;;;12.87;;
11572;SDS011;5842;52.426;4.886;2023-05-07T07:00:47;17.90;;;13.80;;
11572;SDS011;5842;52.426;4.886;2023-05-07T07:03:21;14.57;;;13.07;;
11572;SDS011;5842;52.426;4.886;2023-05-07T07:05:58;15.53;;;13.87;;
11572;SDS011;5842;52.426;4.886;2023-05-07T07:08:31;15.03;;;13.47;;
11572;SDS011;5842;52.426;4.886;2023-05-07T07:11:06;14.37;;;12.93;;
11572;SDS011;5842;52.426;4.886;2023-05-07T07:13:40;17.00;;;15.17;;
11572;SDS011;5842;52.426;4.886;2023-05-07T07:16:13;17.97;;;16.10;;
11572;SDS011;5842;52.426;4.886;2023-05-07T07:18:49;16.77;;;14.97;;
11572;SDS011;5842;52.426;4.886;2023-05-07T07:38:12;14.47;;;12.97;;
11572;SDS011;5842;52.426;4.886;2023-05-07T07:40:47;15.37;;;13.67;;
11572;SDS011;5842;52.426;4.886;2023-05-07T07:43:31;14.53;;;13.03;;
11572;SDS011;5842;52.426;4.886;2023-05-07T07:46:06;14.70;;;13.17;;
11572;SDS011;5842;52.426;4.886;2023-05-07T07:48:47;13.93;;;12.63;;
11572;SDS011;5842;52.426;4.886;2023-05-07T07:51:21;13.32;;;11.93;;
11572;SDS011;5842;52.426;4.886;2023-05-07T07:54:03;14.13;;;12.60;;
11572;SDS011;5842;52.426;4.886;2023-05-07T07:56:36;17.20;;;15.37;;
11572;SDS011;5842;52.426;4.886;2023-05-07T07:59:11;13.85;;;12.50;;
11572;SDS011;5842;52.426;4.886;2023-05-07T08:01:46;45.97;;;41.83;;
11572;SDS011;5842;52.426;4.886;2023-05-07T08:04:20;13.25;;;11.85;;
11572;SDS011;5842;52.426;4.886;2023-05-07T08:09:28;13.20;;;12.00;;
11572;SDS011;5842;52.426;4.886;2023-05-07T08:52:51;12.93;;;11.63;;
11572;SDS011;5842;52.426;4.886;2023-05-07T08:55:25;12.18;;;11.07;;
11572;SDS011;5842;52.426;4.886;2023-05-07T08:57:59;13.18;;;11.90;;
11572;SDS011;5842;52.426;4.886;2023-05-07T09:00:32;13.38;;;12.18;;
11572;SDS011;5842;52.426;4.886;2023-05-07T09:03:06;13.55;;;12.23;;
11572;SDS011;5842;52.426;4.886;2023-05-07T09:05:40;13.30;;;12.10;;
11572;SDS011;5842;52.426;4.886;2023-05-07T09:13:19;13.20;;;12.00;;
11572;SDS011;5842;52.426;4.886;2023-05-07T09:39:21;10.65;;;9.68;;
11572;SDS011;5842;52.426;4.886;2023-05-07T09:41:56;12.32;;;10.80;;
11572;SDS011;5842;52.426;4.886;2023-05-07T09:44:54;11.45;;;10.35;;
11572;SDS011;5842;52.426;4.886;2023-05-07T09:47:27;13.02;;;9.82;;
11572;SDS011;5842;52.426;4.886;2023-05-07T09:49:59;10.10;;;9.10;;
11572;SDS011;5842;52.426;4.886;2023-05-07T09:55:02;11.93;;;10.77;;
11572;SDS011;5842;52.426;4.886;2023-05-07T09:57:31;10.90;;;9.90;;
11572;SDS011;5842;52.426;4.886;2023-05-07T09:59:59;14.32;;;12.95;;
11572;SDS011;5842;52.426;4.886;2023-05-07T10:02:32;16.10;;;14.52;;
11572;SDS011;5842;52.426;4.886;2023-05-07T10:05:01;11.80;;;10.70;;
11572;SDS011;5842;52.426;4.886;2023-05-07T10:07:29;14.82;;;13.43;;
11572;SDS011;5842;52.426;4.886;2023-05-07T10:09:57;16.10;;;14.40;;
11572;SDS011;5842;52.426;4.886;2023-05-07T10:12:27;13.20;;;11.80;;
11572;SDS011;5842;52.426;4.886;2023-05-07T10:14:55;17.20;;;15.45;;
11572;SDS011;5842;52.426;4.886;2023-05-07T10:17:23;16.65;;;15.05;;
11572;SDS011;5842;52.426;4.886;2023-05-07T10:19:54;16.90;;;15.23;;
11572;SDS011;5842;52.426;4.886;2023-05-07T10:22:23;16.55;;;14.95;;
11572;SDS011;5842;52.426;4.886;2023-05-07T10:24:52;17.27;;;15.57;;
11572;SDS011;5842;52.426;4.886;2023-05-07T10:27:21;18.70;;;16.88;;
11572;SDS011;5842;52.426;4.886;2023-05-07T10:30:00;18.73;;;16.97;;
11572;SDS011;5842;52.426;4.886;2023-05-07T10:32:33;19.40;;;17.50;;
11572;SDS011;5842;52.426;4.886;2023-05-07T10:35:03;17.93;;;16.13;;
11572;SDS011;5842;52.426;4.886;2023-05-07T10:37:32;19.33;;;17.13;;
11572;SDS011;5842;52.426;4.886;2023-05-07T10:39:59;20.77;;;18.33;;
11572;SDS011;5842;52.426;4.886;2023-05-07T10:42:27;17.93;;;16.13;;
11572;SDS011;5842;52.426;4.886;2023-05-07T10:44:58;19.63;;;17.63;;
11572;SDS011;5842;52.426;4.886;2023-05-07T10:47:53;17.80;;;16.10;;
11572;SDS011;5842;52.426;4.886;2023-05-07T10:50:32;18.07;;;16.30;;
11572;SDS011;5842;52.426;4.886;2023-05-07T10:55:46;18.73;;;16.83;;
11572;SDS011;5842;52.426;4.886;2023-05-07T10:58:23;20.20;;;18.20;;
11572;SDS011;5842;52.426;4.886;2023-05-07T11:00:57;20.63;;;18.70;;
11572;SDS011;5842;52.426;4.886;2023-05-07T11:03:25;20.58;;;18.58;;
11572;SDS011;5842;52.426;4.886;2023-05-07T11:08:55;20.17;;;18.17;;
11572;SDS011;5842;52.426;4.886;2023-05-07T11:14:11;20.10;;;18.03;;
11572;SDS011;5842;52.426;4.886;2023-05-07T11:16:52;18.60;;;16.80;;
11572;SDS011;5842;52.426;4.886;2023-05-07T11:24:58;17.33;;;15.32;;
11572;SDS011;5842;52.426;4.886;2023-05-07T11:27:27;17.17;;;15.57;;
11572;SDS011;5842;52.426;4.886;2023-05-07T11:29:54;17.80;;;16.00;;
11572;SDS011;5842;52.426;4.886;2023-05-07T11:32:30;16.40;;;14.77;;
11572;SDS011;5842;52.426;4.886;2023-05-07T11:35:02;16.85;;;15.13;;
11572;SDS011;5842;52.426;4.886;2023-05-07T11:37:32;16.85;;;15.20;;
11572;SDS011;5842;52.426;4.886;2023-05-07T11:40:02;16.88;;;15.15;;
11572;SDS011;5842;52.426;4.886;2023-05-07T11:42:31;16.17;;;14.57;;
11572;SDS011;5842;52.426;4.886;2023-05-07T11:44:59;16.55;;;14.85;;
11572;SDS011;5842;52.426;4.886;2023-05-07T11:47:29;17.00;;;15.38;;
11572;SDS011;5842;52.426;4.886;2023-05-07T11:50:28;15.88;;;14.25;;
11572;SDS011;5842;52.426;4.886;2023-05-07T11:53:07;17.17;;;15.47;;
11572;SDS011;5842;52.426;4.886;2023-05-07T11:55:34;18.35;;;16.45;;
11572;SDS011;5842;52.426;4.886;2023-05-07T11:58:05;18.47;;;16.67;;
11572;SDS011;5842;52.426;4.886;2023-05-07T12:00:36;19.03;;;17.07;;
11572;SDS011;5842;52.426;4.886;2023-05-07T12:05:59;17.83;;;15.47;;
11572;SDS011;5842;52.426;4.886;2023-05-07T12:08:40;17.70;;;15.93;;
11572;SDS011;5842;52.426;4.886;2023-05-07T12:11:16;18.33;;;16.37;;
11572;SDS011;5842;52.426;4.886;2023-05-07T12:14:20;17.37;;;15.50;;
11572;SDS011;5842;52.426;4.886;2023-05-07T12:16:47;17.50;;;15.43;;
11572;SDS011;5842;52.426;4.886;2023-05-07T12:19:32;15.70;;;14.17;;
11572;SDS011;5842;52.426;4.886;2023-05-07T12:22:07;16.60;;;13.37;;
11572;SDS011;5842;52.426;4.886;2023-05-07T12:24:44;15.30;;;12.93;;
11572;SDS011;5842;52.426;4.886;2023-05-07T12:27:20;14.82;;;12.77;;
11572;SDS011;5842;52.426;4.886;2023-05-07T12:30:04;14.75;;;12.82;;
11572;SDS011;5842;52.426;4.886;2023-05-07T12:33:58;13.93;;;11.48;;
11572;SDS011;5842;52.426;4.886;2023-05-07T12:39:05;12.33;;;11.07;;
11572;SDS011;5842;52.426;4.886;2023-05-07T12:47:43;14.13;;;12.47;;
11572;SDS011;5842;52.426;4.886;2023-05-07T12:53:14;13.63;;;11.90;;
11572;SDS011;5842;52.426;4.886;2023-05-07T13:02:22;16.10;;;13.90;;
11572;SDS011;5842;52.426;4.886;2023-05-07T13:11:39;17.17;;;14.53;;
11572;SDS011;5842;52.426;4.886;2023-05-07T13:14:35;16.80;;;13.43;;
11572;SDS011;5842;52.426;4.886;2023-05-07T13:17:04;14.43;;;12.77;;
11572;SDS011;5842;52.426;4.886;2023-05-07T13:19:35;18.13;;;14.10;;
11572;SDS011;5842;52.426;4.886;2023-05-07T13:22:03;17.07;;;14.43;;
11572;SDS011;5842;52.426;4.886;2023-05-07T13:24:30;16.23;;;13.87;;
11572;SDS011;5842;52.426;4.886;2023-05-07T13:26:58;15.20;;;12.80;;
11572;SDS011;5842;52.426;4.886;2023-05-07T13:29:26;16.53;;;14.10;;
11572;SDS011;5842;52.426;4.886;2023-05-07T13:35:00;16.83;;;14.80;;
11572;SDS011;5842;52.426;4.886;2023-05-07T13:43:24;24.40;;;18.47;;
11572;SDS011;5842;52.426;4.886;2023-05-07T13:45:51;27.93;;;20.57;;
11572;SDS011;5842;52.426;4.886;2023-05-07T13:48:20;24.80;;;18.47;;
11572;SDS011;5842;52.426;4.886;2023-05-07T13:50:49;36.13;;;24.57;;
11572;SDS011;5842;52.426;4.886;2023-05-07T13:53:17;31.20;;;21.00;;
11572;SDS011;5842;52.426;4.886;2023-05-07T13:55:45;28.03;;;19.40;;
11572;SDS011;5842;52.426;4.886;2023-05-07T13:58:21;29.67;;;20.63;;
11572;SDS011;5842;52.426;4.886;2023-05-07T14:00:49;33.30;;;22.97;;
11572;SDS011;5842;52.426;4.886;2023-05-07T14:03:17;32.43;;;21.73;;
11572;SDS011;5842;52.426;4.886;2023-05-07T14:05:45;37.00;;;23.47;;
11572;SDS011;5842;52.426;4.886;2023-05-07T14:08:22;36.43;;;24.27;;
11572;SDS011;5842;52.426;4.886;2023-05-07T14:10:50;40.37;;;26.97;;
11572;SDS011;5842;52.426;4.886;2023-05-07T14:13:18;38.73;;;28.00;;
11572;SDS011;5842;52.426;4.886;2023-05-07T14:15:50;41.93;;;28.63;;
11572;SDS011;5842;52.426;4.886;2023-05-07T14:18:20;42.97;;;30.70;;
11572;SDS011;5842;52.426;4.886;2023-05-07T14:20:48;43.60;;;30.47;;
11572;SDS011;5842;52.426;4.886;2023-05-07T14:23:15;40.83;;;27.70;;
11572;SDS011;5842;52.426;4.886;2023-05-07T14:25:53;37.83;;;27.27;;
11572;SDS011;5842;52.426;4.886;2023-05-07T14:28:22;38.90;;;27.77;;
11572;SDS011;5842;52.426;4.886;2023-05-07T14:30:50;38.33;;;28.27;;
11572;SDS011;5842;52.426;4.886;2023-05-07T14:33:17;44.37;;;30.20;;
11572;SDS011;5842;52.426;4.886;2023-05-07T14:35:58;42.10;;;29.53;;
11572;SDS011;5842;52.426;4.886;2023-05-07T14:38:26;45.30;;;32.03;;
11572;SDS011;5842;52.426;4.886;2023-05-07T14:40:59;49.10;;;33.43;;
11572;SDS011;5842;52.426;4.886;2023-05-07T14:43:27;46.87;;;31.83;;
11572;SDS011;5842;52.426;4.886;2023-05-07T14:45:54;44.93;;;30.53;;
11572;SDS011;5842;52.426;4.886;2023-05-07T14:48:22;45.33;;;30.70;;
11572;SDS011;5842;52.426;4.886;2023-05-07T14:50:49;46.60;;;31.70;;
11572;SDS011;5842;52.426;4.886;2023-05-07T14:53:17;42.63;;;29.97;;
11572;SDS011;5842;52.426;4.886;2023-05-07T14:55:45;41.07;;;28.53;;
11572;SDS011;5842;52.426;4.886;2023-05-07T14:58:14;40.13;;;27.30;;
11572;SDS011;5842;52.426;4.886;2023-05-07T15:00:41;38.30;;;27.97;;
11572;SDS011;5842;52.426;4.886;2023-05-07T15:03:12;42.07;;;30.07;;
11572;SDS011;5842;52.426;4.886;2023-05-07T15:05:39;36.90;;;27.73;;
11572;SDS011;5842;52.426;4.886;2023-05-07T15:08:07;36.63;;;27.47;;
11572;SDS011;5842;52.426;4.886;2023-05-07T15:10:35;41.43;;;29.43;;
11572;SDS011;5842;52.426;4.886;2023-05-07T15:13:06;38.60;;;28.37;;
11572;SDS011;5842;52.426;4.886;2023-05-07T15:15:37;38.67;;;28.30;;
11572;SDS011;5842;52.426;4.886;2023-05-07T15:18:05;40.27;;;28.93;;
11572;SDS011;5842;52.426;4.886;2023-05-07T15:20:33;36.17;;;26.47;;
11572;SDS011;5842;52.426;4.886;2023-05-07T15:23:00;35.23;;;26.67;;
11572;SDS011;5842;52.426;4.886;2023-05-07T15:25:30;37.80;;;27.30;;
11572;SDS011;5842;52.426;4.886;2023-05-07T15:27:58;34.97;;;26.60;;
11572;SDS011;5842;52.426;4.886;2023-05-07T15:30:26;32.60;;;24.23;;
11572;SDS011;5842;52.426;4.886;2023-05-07T15:32:57;33.27;;;25.13;;
11572;SDS011;5842;52.426;4.886;2023-05-07T15:35:25;30.73;;;23.47;;
11572;SDS011;5842;52.426;4.886;2023-05-07T15:37:52;30.50;;;22.87;;
11572;SDS011;5842;52.426;4.886;2023-05-07T15:40:20;31.50;;;22.03;;
11572;SDS011;5842;52.426;4.886;2023-05-07T15:42:48;24.60;;;18.50;;
11572;SDS011;5842;52.426;4.886;2023-05-07T15:45:15;20.63;;;17.13;;
11572;SDS011;5842;52.426;4.886;2023-05-07T15:47:42;20.27;;;15.73;;
11572;SDS011;5842;52.426;4.886;2023-05-07T15:50:12;17.40;;;13.83;;
11572;SDS011;5842;52.426;4.886;2023-05-07T15:52:39;15.13;;;12.00;;
11572;SDS011;5842;52.426;4.886;2023-05-07T15:55:10;16.10;;;11.97;;
11572;SDS011;5842;52.426;4.886;2023-05-07T15:57:37;7.17;;;5.97;;
11572;SDS011;5842;52.426;4.886;2023-05-07T16:00:05;7.17;;;6.43;;
11572;SDS011;5842;52.426;4.886;2023-05-07T16:02:36;7.53;;;5.97;;
11572;SDS011;5842;52.426;4.886;2023-05-07T16:05:04;8.50;;;6.17;;
11572;SDS011;5842;52.426;4.886;2023-05-07T16:07:36;7.57;;;6.27;;
11572;SDS011;5842;52.426;4.886;2023-05-07T16:10:04;10.00;;;6.93;;
11572;SDS011;5842;52.426;4.886;2023-05-07T16:12:35;8.53;;;5.90;;
11572;SDS011;5842;52.426;4.886;2023-05-07T16:15:02;8.80;;;6.73;;
11572;SDS011;5842;52.426;4.886;2023-05-07T16:17:30;9.00;;;6.60;;
11572;SDS011;5842;52.426;4.886;2023-05-07T16:19:58;9.27;;;7.23;;
11572;SDS011;5842;52.426;4.886;2023-05-07T16:22:26;9.20;;;7.20;;
11572;SDS011;5842;52.426;4.886;2023-05-07T16:24:55;10.17;;;7.97;;
11572;SDS011;5842;52.426;4.886;2023-05-07T16:27:22;7.80;;;7.00;;
11572;SDS011;5842;52.426;4.886;2023-05-07T16:29:50;8.87;;;7.47;;
11572;SDS011;5842;52.426;4.886;2023-05-07T16:32:17;8.17;;;6.87;;
11572;SDS011;5842;52.426;4.886;2023-05-07T16:34:45;11.47;;;8.83;;
11572;SDS011;5842;52.426;4.886;2023-05-07T16:37:13;9.40;;;8.50;;
11572;SDS011;5842;52.426;4.886;2023-05-07T16:39:40;11.23;;;8.70;;
11572;SDS011;5842;52.426;4.886;2023-05-07T16:42:09;10.50;;;8.50;;
11572;SDS011;5842;52.426;4.886;2023-05-07T16:44:44;11.57;;;8.30;;
11572;SDS011;5842;52.426;4.886;2023-05-07T16:47:13;10.50;;;8.40;;
11572;SDS011;5842;52.426;4.886;2023-05-07T16:49:41;11.47;;;9.10;;
11572;SDS011;5842;52.426;4.886;2023-05-07T16:52:08;10.87;;;9.17;;
11572;SDS011;5842;52.426;4.886;2023-05-07T16:54:36;10.50;;;8.80;;
11572;SDS011;5842;52.426;4.886;2023-05-07T16:57:03;11.47;;;9.47;;
11572;SDS011;5842;52.426;4.886;2023-05-07T16:59:32;12.67;;;9.97;;
11572;SDS011;5842;52.426;4.886;2023-05-07T17:02:00;14.07;;;10.30;;
11572;SDS011;5842;52.426;4.886;2023-05-07T17:04:27;12.53;;;9.63;;
11572;SDS011;5842;52.426;4.886;2023-05-07T17:06:56;12.83;;;9.57;;
11572;SDS011;5842;52.426;4.886;2023-05-07T17:09:24;12.60;;;9.80;;
11572;SDS011;5842;52.426;4.886;2023-05-07T17:11:51;11.37;;;9.33;;
11572;SDS011;5842;52.426;4.886;2023-05-07T17:14:18;11.93;;;9.33;;
11572;SDS011;5842;52.426;4.886;2023-05-07T17:16:47;9.70;;;8.03;;
11572;SDS011;5842;52.426;4.886;2023-05-07T17:19:15;9.30;;;8.00;;
11572;SDS011;5842;52.426;4.886;2023-05-07T17:21:42;9.30;;;8.10;;
11572;SDS011;5842;52.426;4.886;2023-05-07T17:24:10;10.63;;;9.03;;
11572;SDS011;5842;52.426;4.886;2023-05-07T17:26:37;11.30;;;8.37;;
11572;SDS011;5842;52.426;4.886;2023-05-07T17:29:07;10.33;;;8.37;;
11572;SDS011;5842;52.426;4.886;2023-05-07T17:31:34;11.40;;;9.70;;
11572;SDS011;5842;52.426;4.886;2023-05-07T17:34:03;12.53;;;10.77;;